Etusivu
METAR-TAF:

METAR-TAF

Lentoasemat :

Victoria, Mahé, Seychellit

Leveyspiiri: 04-40S, Pituuspiiri: 055-31E, korkeus merenpinnasta: 3 m

Tämänhetkinen sää

Tämä raportti tehtiin 47 minuuttia sitten, kello 00.00 UTC
Tuuli 3 kn lounaasta
Lämpötila 27°C
Kosteus 89%
Ilmanpaine 1010 hPa
Näkyvyys 10 km tai enemmän
Muutamia pilviä 1600 ft:n korkeudessa

METAR: FSIA 300000Z 22003KT 9999 FEW016 27/25 Q1010 NOSIG

Aika: 04:47 (00:47 UTC)

Sääennuste

Tämä raportti tehtiin 1 tunti ja 44 minuuttia sitten, kello 23.03 UTC
Ennuste voimassa 30. päivästä klo 00 UTC - 30. päivään klo 24 UTC
Tuuli 5 kn etelästä/lounaasta
Näkyvyys 10 km tai enemmän
Hajanaisia pilviä 1900 ft:n korkeudessa
Todennäköisyys 40% :
Ajoittain
30. päivästä klo 00 UTC - 30. päivään klo 06 UTC
Muutamia pilviä 1500 ft:n korkeudessa, Cumulonimbus.
Hajonneita pilviä 1600 ft:n korkeudessa
heikkoja vesikuuroja

TAF: FSIA 292303Z 3000/3024 21005KT 9999 SCT019 PROB40 TEMPO 3000/3006 -SHRA FEW015CB BKN016

Säähavainnot ja -ennusteet yli 4000 lentoasemalta (METAR- ja TAF-raportit).

Käytössä olevat sääasemat on merkitty karttaan keltaisilla ja punaisilla pisteillä.

Aseta hiiri pisteen päälle nähdäksesi sääaseman nimen.

Klikkaa sitten nähdäksesi säähavainnot ja -ennusteet.

Kartan vaihtaminen: klikkaa mustalla rastilla varustettuja vihreitä pisteitä, niin voit zoomata sisään; viivalla varustettua vihreää pistettä, niin voit zoomata ulos tai vihreitä nuolia, niin pääset viereisille kartoille.


METAR-TAF: